Aeroporto :
LOGIN :

Iscrizione | Disclaimer

   EN    FR    IT 

 










Sommario :    VFR   VFR Marginale   IFR   IFR Intensivo   IFR Molto Intensivo
Visibilità : 
Base nubi : 
>= 8 km
>= 3000ft
5 / 8 km
1000 / 3000 ft
1500m / 5 km
500 / 1000 ft
800 / 1500m
200 / 500 ft
< 800m
< 200 ft
Simboli :   Temporali  Nebbia  Neve Forte  Precipitazioni Forti  Vento > 20 kt
SIGMETs :   Varie  Temporali  Ghiacco  Turbolenza  Onda orograficha  Ceneri Vulcaniche






- Altitudine del aeroporto : 7 ft
- Codice IATA : XHE


LFTH - Hyeres

ULTIMO METAR :
  • 172200Z AUTO 29018KT CAVOK 11/04 Q1022 TEMPO 30020G30KT

METARs OBSOLETI :
  • 172130Z AUTO 28017KT 9999 FEW040 11/05 Q1022 TEMPO 30020G30KT
  • 172100Z AUTO 27016KT 9999 FEW037 SCT080 BKN170 10/06 Q1022 NOSIG
  • 172030Z AUTO 26016KT 9999 FEW039 BKN210 OVC230 10/06 Q1022 NOSIG
  • 172000Z AUTO 27016KT 9999 FEW044 OVC210 10/06 Q1022 BECMG 29015G30KT
  • 171930Z AUTO 27021KT 9999 BKN044 BKN140 OVC160 10/07 Q1022 BECMG 29015G30KT

TAF TAF LFTH
Valido dal 17 a 21 ore il 18 a 21 ore UTC


172000Z 1721/1821 28020KT CAVOK
TEMPO 1723/1807 30020G30KT
BECMG 1807/1809 30010KT
BECMG 1817/1819 35005KT



MetMap, La meteo Aeronautica in un colpo d'occhio ! - Copyright ORBIFLY Dicembre 2007 - Disclaimer

ORBIFLY MET'MAP TEAM :

Programmazione e sviluppo : Alexandra Zaïnal
Concezione : Baudouin d'Aumeries
Aiuto per la programmazione : Marc-Olivier Méhu
Supporto tecnico e logistico : Manuel Goepfert
Aiuto per la traduzione : Arnaldo La Scala

Contatto : metmap@orbifly.com




FONTI E CREDITI :

   NOAA